createdAt,value
2023-03-12T00:18:05.856Z,0.5
2023-03-12T00:37:25.283Z,0.5
2023-03-12T00:56:44.086Z,0.6
2023-03-12T01:16:03.306Z,0.6
2023-03-12T01:35:23.229Z,0.7
2023-03-12T01:54:41.354Z,0.6
2023-03-12T02:13:59.851Z,0.9
2023-03-12T02:33:19.008Z,1.3
2023-03-12T02:52:38.110Z,1.3
2023-03-12T03:11:58.320Z,1.1
2023-03-12T03:31:14.547Z,1.5
2023-03-12T03:50:34.714Z,1.4
2023-03-12T04:09:53.351Z,1.4
2023-03-12T04:29:13.106Z,1.6
2023-03-12T04:48:33.078Z,1.7
2023-03-12T05:07:51.872Z,1.8
2023-03-12T05:27:11.815Z,1.9
2023-03-12T05:46:31.272Z,2.2
2023-03-12T06:05:49.989Z,1.9
2023-03-12T06:25:09.433Z,1.9
2023-03-12T06:44:28.188Z,1.8
2023-03-12T07:03:46.539Z,1.9
2023-03-12T07:23:06.427Z,2.1
2023-03-12T07:42:26.420Z,2.3
2023-03-12T08:01:47.276Z,2.3
2023-03-12T08:21:04.756Z,2.3
2023-03-12T08:40:24.554Z,2.5
2023-03-12T08:59:42.603Z,2.7
2023-03-12T09:19:02.087Z,3
2023-03-12T09:38:21.627Z,3.1
2023-03-12T09:57:43.129Z,3.5
2023-03-12T10:17:03.666Z,3.8
2023-03-12T10:36:23.461Z,4
2023-03-12T10:55:44.937Z,4.6
2023-03-12T11:15:05.670Z,4.8
2023-03-12T11:34:26.379Z,5.2
2023-03-12T11:53:48.950Z,5.6
2023-03-12T12:13:10.439Z,5.8
2023-03-12T12:51:53.827Z,6.1
2023-03-12T13:11:19.714Z,6.2
2023-03-12T13:30:37.387Z,6.8
2023-03-12T13:49:59.420Z,7.5
2023-03-12T14:09:21.819Z,8
2023-03-12T14:28:43.178Z,8.3
2023-03-12T14:48:03.800Z,8.6
2023-03-12T15:07:24.835Z,9
2023-03-12T15:26:46.923Z,9.2
2023-03-12T15:46:05.501Z,9.4
2023-03-12T16:05:24.355Z,9.5
2023-03-12T16:24:42.827Z,9.2
2023-03-12T16:44:03.418Z,9.3
2023-03-12T17:03:22.880Z,9.4
2023-03-12T17:22:44.410Z,9.4
2023-03-12T17:42:04.088Z,9.3
2023-03-12T18:01:22.723Z,9.4
2023-03-12T18:20:41.208Z,9.1
2023-03-12T18:39:59.246Z,9
2023-03-12T18:59:19.130Z,9.1
2023-03-12T19:18:38.446Z,8.9
2023-03-12T19:37:58.447Z,9.1
2023-03-12T19:57:17.855Z,9.1
2023-03-12T20:16:38.263Z,9.2
2023-03-12T20:35:57.354Z,9.1
2023-03-12T20:55:16.487Z,9.1
2023-03-12T21:14:34.360Z,8.9
2023-03-12T21:48:32.088Z,8.9
2023-03-12T22:07:48.642Z,8.8
2023-03-12T22:27:06.150Z,8.4
2023-03-12T22:46:22.841Z,8.5
2023-03-12T23:05:42.161Z,8.6
2023-03-12T23:25:04.735Z,9
2023-03-12T23:44:23.675Z,8.8
